Celestyal Crystal — 9HA2978 — position and weather

sailwx.info

Track history (hours):
 
Tides and Currents Weather Stations Pressure Air Temp Water Temp Dewpoint Dewpoint Depression Visibility Wind Speed Wind Dir Waves Ship Positions

Celestyal Crystal

Last reported at 2016-Jun-24 11:10 UTC. Time now 2016-Jun-25 07:09 UTC.
Position N 37°54' E 024°31'.

Length 162 m; draft 6.2 m.

Type: Passenger vessel. MMSI: 229001000.

Date/timePositionNaut miles runAvg speedWind from/ knotsBaromVisibWave heightAir tempDewpointWater temp
2016-Jun-24 11:10N 37°54' E 024°31'1015.8
2016-Jun-24 10:31N 37°50' E 024°19'16 1.9
2016-Jun-24 02:10N 37°37' E 024°07'710.9
2016-Jun-24 01:33N 37°32' E 024°13'2411.7
2016-Jun-23 23:28N 37°32' E 024°44'1111.6
2016-Jun-23 22:30N 37°31' E 024°58'1112.0
2016-Jun-23 21:33N 37°29' E 025°12'6 5.4
2016-Jun-23 20:29N 37°28' E 025°19'0 0.0
2016-Jun-23 19:32N 37°28' E 025°19'0 0.0
2016-Jun-23 18:32N 37°28' E 025°19'0 0.0
2016-Jun-23 17:32N 37°28' E 025°19'0 0.0
2016-Jun-23 16:32N 37°28' E 025°19'0 0.0
2016-Jun-23 15:32N 37°28' E 025°19'0 0.0
2016-Jun-23 14:33N 37°28' E 025°19'9 7.4
2016-Jun-23 13:20N 37°36' E 025°25'1013.5
2016-Jun-23 12:33N 37°43' E 025°34'  
2016-Jun-19 03:10N 39°46' E 025°49'1016.5
2016-Jun-19 02:33N 39°56' E 025°54'152 7.2
2016-Jun-18 05:33N 40°56' E 028°58'2016.5
2016-Jun-18 04:22N 40°43' E 028°38'1316.1
2016-Jun-18 03:33N 40°39' E 028°22'1717.0
2016-Jun-18 02:34N 40°38' E 027°60'1716.6
2016-Jun-18 01:34N 40°41' E 027°38'3716.6
2016-Jun-17 23:18N 40°28' E 026°52'3913.8
2016-Jun-17 20:30N 40°02' E 026°15'1313.3
2016-Jun-17 19:31N 39°58' E 025°59'12216.7
2016-Jun-17 12:12N 38°10' E 024°45'1516.3
2016-Jun-17 11:18N 37°57' E 024°36'1315.1
2016-Jun-17 10:26N 37°51' E 024°22'26 2.3
2016-Jun-16 23:19N 37°32' E 024°44'1112.9
2016-Jun-16 22:26N 37°31' E 024°58'1112.9
2016-Jun-16 21:33N 37°29' E 025°12'6 5.3
2016-Jun-16 20:31N 37°28' E 025°19'0 0.0
2016-Jun-16 19:31N 37°28' E 025°19'0 0.0
2016-Jun-16 18:31N 37°28' E 025°19'0 0.0
2016-Jun-16 17:31N 37°28' E 025°19'0 0.0
2016-Jun-16 16:28N 37°28' E 025°19'0 0.0
2016-Jun-16 15:31N 37°28' E 025°19'0 0.0
2016-Jun-16 14:31N 37°28' E 025°19'6 5.4
2016-Jun-16 13:24N 37°34' E 025°22'1113.5
2016-Jun-16 12:34N 37°42' E 025°32'  
Track history (hours):
 
Tides and Currents Weather Stations Pressure Air Temp Water Temp Dewpoint Dewpoint Depression Visibility Wind Speed Wind Dir Waves Ship Positions

Celestyal Crystal

Last reported at 2016-Jun-24 11:10 UTC. Time now 2016-Jun-25 07:09 UTC.
Position N 37°54' E 024°31'.

Length 162 m; draft 6.2 m.

Type: Passenger vessel. MMSI: 229001000.

Date/timePositionNaut miles runAvg speedWind from/ knotsBaromVisibWave heightAir tempDewpointWater temp
2016-Jun-24 11:10N 37°54' E 024°31'1015.8
2016-Jun-24 10:31N 37°50' E 024°19'16 1.9
2016-Jun-24 02:10N 37°37' E 024°07'710.9
2016-Jun-24 01:33N 37°32' E 024°13'2411.7
2016-Jun-23 23:28N 37°32' E 024°44'1111.6
2016-Jun-23 22:30N 37°31' E 024°58'1112.0
2016-Jun-23 21:33N 37°29' E 025°12'6 5.4
2016-Jun-23 20:29N 37°28' E 025°19'0 0.0
2016-Jun-23 19:32N 37°28' E 025°19'0 0.0
2016-Jun-23 18:32N 37°28' E 025°19'0 0.0
2016-Jun-23 17:32N 37°28' E 025°19'0 0.0
2016-Jun-23 16:32N 37°28' E 025°19'0 0.0
2016-Jun-23 15:32N 37°28' E 025°19'0 0.0
2016-Jun-23 14:33N 37°28' E 025°19'9 7.4
2016-Jun-23 13:20N 37°36' E 025°25'1013.5
2016-Jun-23 12:33N 37°43' E 025°34'  
2016-Jun-19 03:10N 39°46' E 025°49'1016.5
2016-Jun-19 02:33N 39°56' E 025°54'152 7.2
2016-Jun-18 05:33N 40°56' E 028°58'2016.5
2016-Jun-18 04:22N 40°43' E 028°38'1316.1
2016-Jun-18 03:33N 40°39' E 028°22'1717.0
2016-Jun-18 02:34N 40°38' E 027°60'1716.6
2016-Jun-18 01:34N 40°41' E 027°38'3716.6
2016-Jun-17 23:18N 40°28' E 026°52'3913.8
2016-Jun-17 20:30N 40°02' E 026°15'1313.3
2016-Jun-17 19:31N 39°58' E 025°59'12216.7
2016-Jun-17 12:12N 38°10' E 024°45'1516.3
2016-Jun-17 11:18N 37°57' E 024°36'1315.1
2016-Jun-17 10:26N 37°51' E 024°22'26 2.3
2016-Jun-16 23:19N 37°32' E 024°44'1112.9
2016-Jun-16 22:26N 37°31' E 024°58'1112.9
2016-Jun-16 21:33N 37°29' E 025°12'6 5.3
2016-Jun-16 20:31N 37°28' E 025°19'0 0.0
2016-Jun-16 19:31N 37°28' E 025°19'0 0.0
2016-Jun-16 18:31N 37°28' E 025°19'0 0.0
2016-Jun-16 17:31N 37°28' E 025°19'0 0.0
2016-Jun-16 16:28N 37°28' E 025°19'0 0.0
2016-Jun-16 15:31N 37°28' E 025°19'0 0.0
2016-Jun-16 14:31N 37°28' E 025°19'6 5.4
2016-Jun-16 13:24N 37°34' E 025°22'1113.5
2016-Jun-16 12:34N 37°42' E 025°32'  

Dump ship's entire track history